PWSweather.com
Personal Weather Stations
Station Observations
SD92115WX
El Cerrito Stoneybluff, San Diego, CA 92115

El Cerrito StoneybluffSan Diego, CA 92115

Lat: 32.754096, Lon: -117.066705

Elevation: 420

Station Type: Davis Vantage Vue

http://stoneybluff.com

Latest ConditionsUpdated 9:59:14 PM PST Friday, Jan 17, 2020
Currently Today's Max Today's Min Today's Average
Temperature 47.1°F8.4°C 61.3°F16.3°C 47.1°F8.4°C 53.2°F11.8°C
Dew Point 44.6°F7.0°C 55.6°F13.1°C 44.6°F7.0°C 48.9°F9.4°C
Winds Calm Calm 5.6 mph -9.0 kmh - - 0.8 mph 1.3 kmh
Wind Gusts -- 9.6 mph15.4 kmh - -
Humidity 91% 96% 66% 86%
Pressure 30.14 in1020.7 mb 30.19 in1022.4 mb 30.08 in1018.6 mb -
Precipitation - 0.11 in2.8 mm - -
Hour Temp Dew Point Humidity Winds Wind Gusts Pressure Precip Precip Rate Daily Precip Total
09:59 PM 47.1°F8.4°C 44.6°F7.0°C 91% Calm Calm -- 30.14 in1020.7 mb 0.00 in0.0 mm 0.00 in0.0 mm 0.11 in2.8 mm
09:54 PM 47.1°F8.4°C 44.6°F7.0°C 91% Calm Calm -- 30.14 in1020.7 mb 0.00 in0.0 mm 0.00 in0.0 mm 0.11 in2.8 mm
09:49 PM 47.5°F8.6°C 45.0°F7.2°C 91% Calm Calm -- 30.14 in1020.7 mb 0.00 in0.0 mm 0.00 in0.0 mm 0.11 in2.8 mm
09:44 PM 47.7°F8.7°C 45.1°F7.3°C 91% Calm Calm -- 30.14 in1020.7 mb 0.00 in0.0 mm 0.00 in0.0 mm 0.11 in2.8 mm
09:39 PM 47.7°F8.7°C 45.1°F7.3°C 91% Calm Calm -- 30.14 in1020.7 mb 0.00 in0.0 mm 0.00 in0.0 mm 0.11 in2.8 mm
09:34 PM 47.8°F8.8°C 45.3°F7.4°C 91% Calm Calm -- 30.14 in1020.7 mb 0.00 in0.0 mm 0.00 in0.0 mm 0.11 in2.8 mm
09:29 PM 48.0°F8.9°C 45.5°F7.5°C 91% Calm Calm -- 30.14 in1020.7 mb 0.00 in0.0 mm 0.00 in0.0 mm 0.11 in2.8 mm
09:24 PM 48.0°F8.9°C 45.1°F7.3°C 90% Calm Calm -- 30.14 in1020.7 mb 0.00 in0.0 mm 0.00 in0.0 mm 0.11 in2.8 mm
09:19 PM 48.4°F9.1°C 45.9°F7.7°C 91% Calm Calm -- 30.14 in1020.7 mb 0.00 in0.0 mm 0.00 in0.0 mm 0.11 in2.8 mm
09:14 PM 48.0°F8.9°C 45.1°F7.3°C 90% Calm Calm -- 30.14 in1020.7 mb 0.00 in0.0 mm 0.00 in0.0 mm 0.11 in2.8 mm
09:09 PM 48.4°F9.1°C 45.5°F7.5°C 90% Calm Calm -- 30.13 in1020.3 mb 0.00 in0.0 mm 0.00 in0.0 mm 0.11 in2.8 mm
09:04 PM 48.4°F9.1°C 45.5°F7.5°C 90% Calm Calm -- 30.14 in1020.7 mb 0.00 in0.0 mm 0.00 in0.0 mm 0.11 in2.8 mm
08:59 PM 48.6°F9.2°C 45.5°F7.5°C 89% Calm Calm -- 30.14 in1020.7 mb 0.00 in0.0 mm 0.00 in0.0 mm 0.11 in2.8 mm
08:54 PM 48.7°F9.3°C 45.7°F7.6°C 89% Calm Calm -- 30.14 in1020.7 mb 0.00 in0.0 mm 0.00 in0.0 mm 0.11 in2.8 mm
08:49 PM 49.1°F9.5°C 46.0°F7.8°C 89% Calm Calm -- 30.14 in1020.7 mb 0.00 in0.0 mm 0.00 in0.0 mm 0.11 in2.8 mm
08:44 PM 48.9°F9.4°C 46.0°F7.8°C 90% Calm Calm -- 30.13 in1020.3 mb 0.00 in0.0 mm 0.00 in0.0 mm 0.11 in2.8 mm
08:39 PM 48.9°F9.4°C 45.5°F7.5°C 88% Calm Calm -- 30.13 in1020.3 mb 0.00 in0.0 mm 0.00 in0.0 mm 0.11 in2.8 mm
08:34 PM 49.3°F9.6°C 45.9°F7.7°C 88% Calm Calm -- 30.13 in1020.3 mb 0.00 in0.0 mm 0.00 in0.0 mm 0.11 in2.8 mm
08:29 PM 49.5°F9.7°C 46.0°F7.8°C 88% Calm Calm -- 30.14 in1020.7 mb 0.00 in0.0 mm 0.00 in0.0 mm 0.11 in2.8 mm
08:24 PM 49.5°F9.7°C 46.0°F7.8°C 88% Calm Calm -- 30.14 in1020.7 mb 0.00 in0.0 mm 0.00 in0.0 mm 0.11 in2.8 mm
08:19 PM 49.6°F9.8°C 46.2°F7.9°C 88% Calm Calm -- 30.14 in1020.7 mb 0.00 in0.0 mm 0.00 in0.0 mm 0.11 in2.8 mm
08:14 PM 49.8°F9.9°C 46.0°F7.8°C 87% Calm Calm -- 30.14 in1020.7 mb 0.00 in0.0 mm 0.00 in0.0 mm 0.11 in2.8 mm
08:09 PM 50.2°F10.1°C 46.4°F8.0°C 87% Calm Calm -- 30.14 in1020.7 mb 0.00 in0.0 mm 0.00 in0.0 mm 0.11 in2.8 mm
08:04 PM 50.4°F10.2°C 46.6°F8.1°C 87% Calm Calm -- 30.14 in1020.7 mb 0.00 in0.0 mm 0.00 in0.0 mm 0.11 in2.8 mm
07:59 PM 50.2°F10.1°C 46.2°F7.9°C 86% Calm Calm -- 30.14 in1020.7 mb 0.00 in0.0 mm 0.00 in0.0 mm 0.11 in2.8 mm
07:54 PM 50.5°F10.3°C 46.6°F8.1°C 86% Calm Calm -- 30.14 in1020.7 mb 0.00 in0.0 mm 0.00 in0.0 mm 0.11 in2.8 mm
07:49 PM 50.7°F10.4°C 46.4°F8.0°C 85% Calm Calm -- 30.14 in1020.7 mb 0.00 in0.0 mm 0.00 in0.0 mm 0.11 in2.8 mm
07:44 PM 50.9°F10.5°C 46.6°F8.1°C 85% Calm Calm -- 30.13 in1020.3 mb 0.00 in0.0 mm 0.00 in0.0 mm 0.11 in2.8 mm
07:39 PM 51.1°F10.6°C 46.8°F8.2°C 85% Calm Calm -- 30.14 in1020.7 mb 0.00 in0.0 mm 0.00 in0.0 mm 0.11 in2.8 mm
07:34 PM 51.3°F10.7°C 46.9°F8.3°C 85% Calm Calm -- 30.14 in1020.7 mb 0.00 in0.0 mm 0.00 in0.0 mm 0.11 in2.8 mm
07:29 PM 51.4°F10.8°C 46.8°F8.2°C 84% Calm Calm -- 30.14 in1020.7 mb 0.00 in0.0 mm 0.00 in0.0 mm 0.11 in2.8 mm
07:24 PM 51.6°F10.9°C 46.9°F8.3°C 84% Calm Calm -- 30.13 in1020.3 mb 0.00 in0.0 mm 0.00 in0.0 mm 0.11 in2.8 mm
07:19 PM 51.8°F11.0°C 46.8°F8.2°C 83% Calm Calm -- 30.13 in1020.3 mb 0.00 in0.0 mm 0.00 in0.0 mm 0.11 in2.8 mm
07:14 PM 52.2°F11.2°C 47.1°F8.4°C 83% Calm Calm -- 30.13 in1020.3 mb 0.00 in0.0 mm 0.00 in0.0 mm 0.11 in2.8 mm
07:09 PM 52.2°F11.2°C 47.1°F8.4°C 83% Calm Calm 2.0 mph3.2 kmh 30.13 in1020.3 mb 0.00 in0.0 mm 0.00 in0.0 mm 0.11 in2.8 mm
07:04 PM 52.2°F11.2°C 47.1°F8.4°C 83% Calm Calm -- 30.12 in1020.0 mb 0.00 in0.0 mm 0.00 in0.0 mm 0.11 in2.8 mm
06:59 PM 52.2°F11.2°C 47.1°F8.4°C 83% 0.2 mph NNE0.3 kmh NNE 2.0 mph3.2 kmh 30.13 in1020.3 mb 0.00 in0.0 mm 0.00 in0.0 mm 0.11 in2.8 mm
06:54 PM 52.3°F11.3°C 47.3°F8.5°C 83% Calm Calm 1.1 mph1.8 kmh 30.12 in1020.0 mb 0.00 in0.0 mm 0.00 in0.0 mm 0.11 in2.8 mm
06:49 PM 52.5°F11.4°C 47.5°F8.6°C 83% Calm Calm -- 30.12 in1020.0 mb 0.00 in0.0 mm 0.00 in0.0 mm 0.11 in2.8 mm
06:44 PM 52.9°F11.6°C 47.5°F8.6°C 82% Calm Calm 3.1 mph5.0 kmh 30.12 in1020.0 mb 0.00 in0.0 mm 0.00 in0.0 mm 0.11 in2.8 mm
06:39 PM 52.9°F11.6°C 47.5°F8.6°C 82% 1.3 mph NW2.1 kmh NW 5.4 mph8.7 kmh 30.12 in1020.0 mb 0.00 in0.0 mm 0.00 in0.0 mm 0.11 in2.8 mm
06:34 PM 53.1°F11.7°C 47.7°F8.7°C 82% 1.3 mph NNW2.1 kmh NNW 5.4 mph8.7 kmh 30.12 in1020.0 mb 0.00 in0.0 mm 0.00 in0.0 mm 0.11 in2.8 mm
06:29 PM 53.1°F11.7°C 47.7°F8.7°C 82% 2.5 mph WNW4.0 kmh WNW 5.4 mph8.7 kmh 30.12 in1020.0 mb 0.00 in0.0 mm 0.00 in0.0 mm 0.11 in2.8 mm
06:24 PM 53.2°F11.8°C 47.5°F8.6°C 81% 2.0 mph NW3.2 kmh NW 4.3 mph6.9 kmh 30.12 in1020.0 mb 0.00 in0.0 mm 0.00 in0.0 mm 0.11 in2.8 mm
06:19 PM 53.4°F11.9°C 47.7°F8.7°C 81% 2.0 mph NW3.2 kmh NW 5.4 mph8.7 kmh 30.12 in1020.0 mb 0.00 in0.0 mm 0.00 in0.0 mm 0.11 in2.8 mm
06:14 PM 53.4°F11.9°C 47.7°F8.7°C 81% 2.9 mph NW4.7 kmh NW 5.4 mph8.7 kmh 30.12 in1020.0 mb 0.00 in0.0 mm 0.00 in0.0 mm 0.11 in2.8 mm
06:09 PM 53.8°F12.1°C 47.8°F8.8°C 80% 1.8 mph NW2.9 kmh NW 5.4 mph8.7 kmh 30.13 in1020.3 mb 0.00 in0.0 mm 0.00 in0.0 mm 0.11 in2.8 mm
06:04 PM 53.8°F12.1°C 47.8°F8.8°C 80% 3.1 mph NW5.0 kmh NW 7.4 mph11.9 kmh 30.12 in1020.0 mb 0.00 in0.0 mm 0.00 in0.0 mm 0.11 in2.8 mm
05:59 PM 54.0°F12.2°C 48.0°F8.9°C 80% 3.4 mph WNW5.5 kmh WNW 7.4 mph11.9 kmh 30.12 in1020.0 mb 0.00 in0.0 mm 0.00 in0.0 mm 0.11 in2.8 mm
05:54 PM 54.0°F12.2°C 47.7°F8.7°C 79% 3.4 mph WNW5.5 kmh WNW 7.4 mph11.9 kmh 30.12 in1020.0 mb 0.00 in0.0 mm 0.00 in0.0 mm 0.11 in2.8 mm
05:49 PM 54.1°F12.3°C 47.8°F8.8°C 79% 2.2 mph NW3.5 kmh NW 6.3 mph10.1 kmh 30.12 in1020.0 mb 0.00 in0.0 mm 0.00 in0.0 mm 0.11 in2.8 mm
05:44 PM 54.3°F12.4°C 48.0°F8.9°C 79% 2.2 mph NW3.5 kmh NW 9.6 mph15.4 kmh 30.12 in1020.0 mb 0.00 in0.0 mm 0.00 in0.0 mm 0.11 in2.8 mm
05:39 PM 54.5°F12.5°C 48.2°F9.0°C 79% 2.7 mph NW4.3 kmh NW 6.3 mph10.1 kmh 30.12 in1020.0 mb 0.00 in0.0 mm 0.00 in0.0 mm 0.11 in2.8 mm
05:34 PM 54.7°F12.6°C 48.4°F9.1°C 79% 2.2 mph WNW3.5 kmh WNW 6.3 mph10.1 kmh 30.11 in1019.6 mb 0.00 in0.0 mm 0.00 in0.0 mm 0.11 in2.8 mm
05:29 PM 54.9°F12.7°C 48.2°F9.0°C 78% 3.4 mph NW5.5 kmh NW 6.3 mph10.1 kmh 30.12 in1020.0 mb 0.00 in0.0 mm 0.00 in0.0 mm 0.11 in2.8 mm
05:24 PM 55.2°F12.9°C 48.2°F9.0°C 77% 4.0 mph NNW6.4 kmh NNW 7.4 mph11.9 kmh 30.12 in1020.0 mb 0.00 in0.0 mm 0.00 in0.0 mm 0.11 in2.8 mm
05:19 PM 55.6°F13.1°C 48.6°F9.2°C 77% 1.3 mph NW2.1 kmh NW 4.3 mph6.9 kmh 30.12 in1020.0 mb 0.00 in0.0 mm 0.00 in0.0 mm 0.11 in2.8 mm
05:14 PM 55.8°F13.2°C 48.4°F9.1°C 76% 2.7 mph NW4.3 kmh NW 5.4 mph8.7 kmh 30.11 in1019.6 mb 0.00 in0.0 mm 0.00 in0.0 mm 0.11 in2.8 mm
05:09 PM 56.1°F13.4°C 48.4°F9.1°C 75% 1.8 mph NW2.9 kmh NW 6.3 mph10.1 kmh 30.11 in1019.6 mb 0.00 in0.0 mm 0.00 in0.0 mm 0.11 in2.8 mm
05:04 PM 56.3°F13.5°C 48.6°F9.2°C 75% 2.2 mph W3.5 kmh W 8.5 mph13.7 kmh 30.11 in1019.6 mb 0.00 in0.0 mm 0.00 in0.0 mm 0.11 in2.8 mm
04:59 PM 56.7°F13.7°C 48.4°F9.1°C 74% 3.6 mph NW5.8 kmh NW 8.5 mph13.7 kmh 30.11 in1019.6 mb 0.00 in0.0 mm 0.00 in0.0 mm 0.11 in2.8 mm
04:54 PM 57.0°F13.9°C 48.7°F9.3°C 74% 2.2 mph WNW3.5 kmh WNW 5.4 mph8.7 kmh 30.11 in1019.6 mb 0.00 in0.0 mm 0.00 in0.0 mm 0.11 in2.8 mm
04:49 PM 57.4°F14.1°C 48.7°F9.3°C 73% 2.0 mph WNW3.2 kmh WNW 6.3 mph10.1 kmh 30.11 in1019.6 mb 0.00 in0.0 mm 0.00 in0.0 mm 0.11 in2.8 mm
04:44 PM 57.7°F14.3°C 49.1°F9.5°C 73% 0.9 mph WNW1.4 kmh WNW 4.3 mph6.9 kmh 30.10 in1019.3 mb 0.00 in0.0 mm 0.00 in0.0 mm 0.11 in2.8 mm
04:39 PM 57.9°F14.4°C 49.3°F9.6°C 73% 2.7 mph WNW4.3 kmh WNW 6.3 mph10.1 kmh 30.10 in1019.3 mb 0.00 in0.0 mm 0.00 in0.0 mm 0.11 in2.8 mm
04:34 PM 58.3°F14.6°C 49.3°F9.6°C 72% 3.4 mph WNW5.5 kmh WNW 6.3 mph10.1 kmh 30.10 in1019.3 mb 0.00 in0.0 mm 0.00 in0.0 mm 0.11 in2.8 mm
04:29 PM 58.6°F14.8°C 49.3°F9.6°C 71% 4.3 mph NW6.9 kmh NW 7.4 mph11.9 kmh 30.11 in1019.6 mb 0.00 in0.0 mm 0.00 in0.0 mm 0.11 in2.8 mm
04:24 PM 58.6°F14.8°C 49.3°F9.6°C 71% 2.7 mph WSW4.3 kmh WSW 7.4 mph11.9 kmh 30.11 in1019.6 mb 0.00 in0.0 mm 0.00 in0.0 mm 0.11 in2.8 mm
04:19 PM 59.0°F15.0°C 49.3°F9.6°C 70% 4.5 mph NW7.2 kmh NW 6.3 mph10.1 kmh 30.10 in1019.3 mb 0.00 in0.0 mm 0.00 in0.0 mm 0.11 in2.8 mm
04:14 PM 59.0°F15.0°C 49.3°F9.6°C 70% 4.5 mph NW7.2 kmh NW 7.4 mph11.9 kmh 30.10 in1019.3 mb 0.00 in0.0 mm 0.00 in0.0 mm 0.11 in2.8 mm
04:09 PM 59.4°F15.2°C 49.1°F9.5°C 69% 3.8 mph WSW6.1 kmh WSW 6.3 mph10.1 kmh 30.10 in1019.3 mb 0.00 in0.0 mm 0.00 in0.0 mm 0.11 in2.8 mm
04:04 PM 59.5°F15.3°C 49.3°F9.6°C 69% 3.4 mph W5.5 kmh W 9.6 mph15.4 kmh 30.10 in1019.3 mb 0.00 in0.0 mm 0.00 in0.0 mm 0.11 in2.8 mm
03:59 PM 59.5°F15.3°C 49.8°F9.9°C 70% 4.3 mph NW6.9 kmh NW 8.5 mph13.7 kmh 30.10 in1019.3 mb 0.00 in0.0 mm 0.00 in0.0 mm 0.11 in2.8 mm
03:54 PM 59.5°F15.3°C 49.3°F9.6°C 69% 3.6 mph W5.8 kmh W 6.3 mph10.1 kmh 30.10 in1019.3 mb 0.00 in0.0 mm 0.00 in0.0 mm 0.11 in2.8 mm
03:49 PM 60.3°F15.7°C 49.6°F9.8°C 68% 5.1 mph W8.2 kmh W 8.5 mph13.7 kmh 30.11 in1019.6 mb 0.00 in0.0 mm 0.00 in0.0 mm 0.11 in2.8 mm
03:44 PM 60.4°F15.8°C 49.5°F9.7°C 67% 3.8 mph WSW6.1 kmh WSW 6.3 mph10.1 kmh 30.11 in1019.6 mb 0.00 in0.0 mm 0.00 in0.0 mm 0.11 in2.8 mm
03:39 PM 61.2°F16.2°C 49.6°F9.8°C 66% 5.6 mph WNW9.0 kmh WNW 9.6 mph15.4 kmh 30.11 in1019.6 mb 0.00 in0.0 mm 0.00 in0.0 mm 0.11 in2.8 mm
03:34 PM 61.2°F16.2°C 50.9°F10.5°C 69% Calm Calm 5.4 mph8.7 kmh 30.11 in1019.6 mb 0.00 in0.0 mm 0.00 in0.0 mm 0.11 in2.8 mm
03:29 PM 61.2°F16.2°C 50.5°F10.3°C 68% 2.7 mph SSW4.3 kmh SSW 7.4 mph11.9 kmh 30.11 in1019.6 mb 0.00 in0.0 mm 0.00 in0.0 mm 0.11 in2.8 mm
03:24 PM 61.2°F16.2°C 51.3°F10.7°C 70% 0.4 mph SW0.6 kmh SW 5.4 mph8.7 kmh 30.10 in1019.3 mb 0.00 in0.0 mm 0.00 in0.0 mm 0.11 in2.8 mm
03:19 PM 61.3°F16.3°C 51.8°F11.0°C 71% 2.7 mph SW4.3 kmh SW 5.4 mph8.7 kmh 30.10 in1019.3 mb 0.00 in0.0 mm 0.00 in0.0 mm 0.11 in2.8 mm
03:14 PM 61.2°F16.2°C 52.0°F11.1°C 72% 2.0 mph SSE3.2 kmh SSE 6.3 mph10.1 kmh 30.10 in1019.3 mb 0.00 in0.0 mm 0.00 in0.0 mm 0.11 in2.8 mm
03:09 PM 61.2°F16.2°C 52.0°F11.1°C 72% 3.6 mph SSW5.8 kmh SSW 7.4 mph11.9 kmh 30.10 in1019.3 mb 0.00 in0.0 mm 0.00 in0.0 mm 0.11 in2.8 mm
03:04 PM 60.8°F16.0°C 52.2°F11.2°C 73% 3.6 mph S5.8 kmh S 5.4 mph8.7 kmh 30.11 in1019.6 mb 0.00 in0.0 mm 0.00 in0.0 mm 0.11 in2.8 mm
02:59 PM 60.4°F15.8°C 52.2°F11.2°C 74% 3.4 mph WSW5.5 kmh WSW 6.3 mph10.1 kmh 30.11 in1019.6 mb 0.00 in0.0 mm 0.00 in0.0 mm 0.11 in2.8 mm
02:54 PM 60.3°F15.7°C 52.0°F11.1°C 74% 2.5 mph SW4.0 kmh SW 6.3 mph10.1 kmh 30.11 in1019.6 mb 0.00 in0.0 mm 0.00 in0.0 mm 0.11 in2.8 mm
02:49 PM 60.1°F15.6°C 52.5°F11.4°C 76% 2.9 mph SW4.7 kmh SW 6.3 mph10.1 kmh 30.11 in1019.6 mb 0.00 in0.0 mm 0.00 in0.0 mm 0.11 in2.8 mm
02:44 PM 59.9°F15.5°C 53.1°F11.7°C 78% 2.5 mph SSW4.0 kmh SSW 7.4 mph11.9 kmh 30.11 in1019.6 mb 0.00 in0.0 mm 0.00 in0.0 mm 0.11 in2.8 mm
02:39 PM 59.7°F15.4°C 52.9°F11.6°C 78% 2.7 mph SW4.3 kmh SW 6.3 mph10.1 kmh 30.11 in1019.6 mb 0.00 in0.0 mm 0.00 in0.0 mm 0.11 in2.8 mm
02:34 PM 59.5°F15.3°C 53.4°F11.9°C 80% 2.0 mph SSE3.2 kmh SSE 4.3 mph6.9 kmh 30.11 in1019.6 mb 0.00 in0.0 mm 0.00 in0.0 mm 0.11 in2.8 mm
02:29 PM 59.4°F15.2°C 52.9°F11.6°C 79% 3.8 mph SW6.1 kmh SW 7.4 mph11.9 kmh 30.11 in1019.6 mb 0.00 in0.0 mm 0.00 in0.0 mm 0.11 in2.8 mm
02:24 PM 58.8°F14.9°C 52.0°F11.1°C 78% 3.8 mph SSW6.1 kmh SSW 6.3 mph10.1 kmh 30.12 in1020.0 mb 0.00 in0.0 mm 0.00 in0.0 mm 0.11 in2.8 mm
02:19 PM 58.8°F14.9°C 52.3°F11.3°C 79% 3.8 mph SW6.1 kmh SW 8.5 mph13.7 kmh 30.12 in1020.0 mb 0.00 in0.0 mm 0.00 in0.0 mm 0.11 in2.8 mm
02:14 PM 58.8°F14.9°C 50.9°F10.5°C 75% 1.6 mph SW2.6 kmh SW 4.3 mph6.9 kmh 30.12 in1020.0 mb 0.00 in0.0 mm 0.00 in0.0 mm 0.11 in2.8 mm
02:09 PM 58.6°F14.8°C 50.4°F10.2°C 74% 1.8 mph WSW2.9 kmh WSW 4.3 mph6.9 kmh 30.12 in1020.0 mb 0.00 in0.0 mm 0.00 in0.0 mm 0.11 in2.8 mm
02:04 PM 58.6°F14.8°C 50.4°F10.2°C 74% 3.1 mph SW5.0 kmh SW 4.3 mph6.9 kmh 30.12 in1020.0 mb 0.00 in0.0 mm 0.00 in0.0 mm 0.11 in2.8 mm
01:59 PM 58.5°F14.7°C 50.2°F10.1°C 74% 0.7 mph W1.1 kmh W 4.3 mph6.9 kmh 30.12 in1020.0 mb 0.00 in0.0 mm 0.00 in0.0 mm 0.11 in2.8 mm
01:54 PM 58.5°F14.7°C 50.5°F10.3°C 75% 0.7 mph WSW1.1 kmh WSW 5.4 mph8.7 kmh 30.12 in1020.0 mb 0.00 in0.0 mm 0.00 in0.0 mm 0.11 in2.8 mm
01:49 PM 58.3°F14.6°C 50.7°F10.4°C 76% 0.7 mph SW1.1 kmh SW 2.0 mph3.2 kmh 30.12 in1020.0 mb 0.00 in0.0 mm 0.00 in0.0 mm 0.11 in2.8 mm
01:44 PM 57.9°F14.4°C 49.6°F9.8°C 74% 0.4 mph WSW0.6 kmh WSW 3.1 mph5.0 kmh 30.12 in1020.0 mb 0.00 in0.0 mm 0.00 in0.0 mm 0.11 in2.8 mm
01:39 PM 57.9°F14.4°C 50.0°F10.0°C 75% 1.8 mph WSW2.9 kmh WSW 4.3 mph6.9 kmh 30.13 in1020.3 mb 0.00 in0.0 mm 0.00 in0.0 mm 0.11 in2.8 mm
01:34 PM 57.9°F14.4°C 50.0°F10.0°C 75% 1.8 mph W2.9 kmh W 5.4 mph8.7 kmh 30.13 in1020.3 mb 0.00 in0.0 mm 0.00 in0.0 mm 0.11 in2.8 mm
01:29 PM 58.3°F14.6°C 50.7°F10.4°C 76% 1.8 mph WSW2.9 kmh WSW 6.3 mph10.1 kmh 30.13 in1020.3 mb 0.00 in0.0 mm 0.00 in0.0 mm 0.11 in2.8 mm
01:24 PM 58.3°F14.6°C 50.4°F10.2°C 75% 2.9 mph WNW4.7 kmh WNW 5.4 mph8.7 kmh 30.13 in1020.3 mb 0.00 in0.0 mm 0.00 in0.0 mm 0.11 in2.8 mm
01:19 PM 58.5°F14.7°C 50.2°F10.1°C 74% Calm Calm -- 30.13 in1020.3 mb 0.00 in0.0 mm 0.00 in0.0 mm 0.11 in2.8 mm
01:14 PM 58.6°F14.8°C 51.1°F10.6°C 76% Calm Calm -- 30.14 in1020.7 mb 0.00 in0.0 mm 0.00 in0.0 mm 0.11 in2.8 mm
01:09 PM 58.5°F14.7°C 50.5°F10.3°C 75% Calm Calm -- 30.14 in1020.7 mb 0.00 in0.0 mm 0.00 in0.0 mm 0.11 in2.8 mm
01:04 PM 58.6°F14.8°C 50.7°F10.4°C 75% 0.4 mph NW0.6 kmh NW 3.1 mph5.0 kmh 30.14 in1020.7 mb 0.00 in0.0 mm 0.00 in0.0 mm 0.11 in2.8 mm
12:59 PM 58.8°F14.9°C 50.5°F10.3°C 74% 2.0 mph W3.2 kmh W 4.3 mph6.9 kmh 30.14 in1020.7 mb 0.00 in0.0 mm 0.00 in0.0 mm 0.11 in2.8 mm
12:54 PM 59.2°F15.1°C 51.6°F10.9°C 76% 0.4 mph SW0.6 kmh SW 2.0 mph3.2 kmh 30.14 in1020.7 mb 0.00 in0.0 mm 0.00 in0.0 mm 0.11 in2.8 mm
12:49 PM 59.0°F15.0°C 51.8°F11.0°C 77% Calm Calm -- 30.14 in1020.7 mb 0.00 in0.0 mm 0.00 in0.0 mm 0.11 in2.8 mm
12:44 PM 59.0°F15.0°C 52.5°F11.4°C 79% Calm Calm -- 30.14 in1020.7 mb 0.00 in0.0 mm 0.00 in0.0 mm 0.11 in2.8 mm
12:39 PM 58.3°F14.6°C 52.5°F11.4°C 81% Calm Calm 2.0 mph3.2 kmh 30.15 in1021.0 mb 0.00 in0.0 mm 0.00 in0.0 mm 0.11 in2.8 mm
12:34 PM 57.4°F14.1°C 51.3°F10.7°C 80% Calm Calm -- 30.15 in1021.0 mb 0.00 in0.0 mm 0.00 in0.0 mm 0.11 in2.8 mm
12:29 PM 57.4°F14.1°C 52.0°F11.1°C 82% 0.9 mph NW1.4 kmh NW 4.3 mph6.9 kmh 30.15 in1021.0 mb 0.00 in0.0 mm 0.00 in0.0 mm 0.11 in2.8 mm
12:24 PM 57.0°F13.9°C 50.9°F10.5°C 80% 0.4 mph NW0.6 kmh NW 3.1 mph5.0 kmh 30.15 in1021.0 mb 0.00 in0.0 mm 0.00 in0.0 mm 0.11 in2.8 mm
12:19 PM 57.0°F13.9°C 51.3°F10.7°C 81% 0.7 mph NW1.1 kmh NW 2.0 mph3.2 kmh 30.15 in1021.0 mb 0.00 in0.0 mm 0.00 in0.0 mm 0.11 in2.8 mm
12:14 PM 57.0°F13.9°C 51.3°F10.7°C 81% 0.2 mph NNW0.3 kmh NNW 3.1 mph5.0 kmh 30.16 in1021.3 mb 0.00 in0.0 mm 0.00 in0.0 mm 0.11 in2.8 mm
12:09 PM 57.0°F13.9°C 51.3°F10.7°C 81% 1.3 mph NNE2.1 kmh NNE 3.1 mph5.0 kmh 30.16 in1021.3 mb 0.00 in0.0 mm 0.00 in0.0 mm 0.11 in2.8 mm
12:04 PM 57.4°F14.1°C 51.6°F10.9°C 81% 1.8 mph NW2.9 kmh NW 4.3 mph6.9 kmh 30.16 in1021.3 mb 0.00 in0.0 mm 0.00 in0.0 mm 0.11 in2.8 mm
11:59 AM 57.4°F14.1°C 51.6°F10.9°C 81% Calm Calm 1.1 mph1.8 kmh 30.17 in1021.7 mb 0.00 in0.0 mm 0.00 in0.0 mm 0.11 in2.8 mm
11:54 AM 57.7°F14.3°C 51.6°F10.9°C 80% 1.8 mph W2.9 kmh W 3.1 mph5.0 kmh 30.17 in1021.7 mb 0.00 in0.0 mm 0.00 in0.0 mm 0.11 in2.8 mm
11:49 AM 58.5°F14.7°C 53.2°F11.8°C 83% Calm Calm 1.1 mph1.8 kmh 30.18 in1022.0 mb 0.00 in0.0 mm 0.00 in0.0 mm 0.11 in2.8 mm
11:44 AM 58.5°F14.7°C 53.2°F11.8°C 83% Calm Calm -- 30.17 in1021.7 mb 0.00 in0.0 mm 0.00 in0.0 mm 0.11 in2.8 mm
11:39 AM 58.3°F14.6°C 53.1°F11.7°C 83% 0.2 mph E0.3 kmh E 2.0 mph3.2 kmh 30.18 in1022.0 mb 0.00 in0.0 mm 0.00 in0.0 mm 0.11 in2.8 mm
11:34 AM 58.1°F14.5°C 53.2°F11.8°C 84% Calm Calm 2.0 mph3.2 kmh 30.18 in1022.0 mb 0.00 in0.0 mm 0.00 in0.0 mm 0.11 in2.8 mm
11:29 AM 58.3°F14.6°C 53.8°F12.1°C 85% 0.2 mph SW0.3 kmh SW 3.1 mph5.0 kmh 30.18 in1022.0 mb 0.00 in0.0 mm 0.00 in0.0 mm 0.11 in2.8 mm
11:24 AM 58.3°F14.6°C 54.1°F12.3°C 86% 0.2 mph WSW0.3 kmh WSW 4.3 mph6.9 kmh 30.18 in1022.0 mb 0.00 in0.0 mm 0.00 in0.0 mm 0.11 in2.8 mm
11:19 AM 58.5°F14.7°C 55.6°F13.1°C 90% 1.1 mph SE1.8 kmh SE 4.3 mph6.9 kmh 30.18 in1022.0 mb 0.00 in0.0 mm 0.00 in0.0 mm 0.11 in2.8 mm
11:14 AM 57.6°F14.2°C 55.0°F12.8°C 91% 0.4 mph SE0.6 kmh SE 2.0 mph3.2 kmh 30.18 in1022.0 mb 0.00 in0.0 mm 0.00 in0.0 mm 0.11 in2.8 mm
11:09 AM 56.8°F13.8°C 54.3°F12.4°C 91% 0.7 mph SW1.1 kmh SW 3.1 mph5.0 kmh 30.19 in1022.4 mb 0.00 in0.0 mm 0.00 in0.0 mm 0.11 in2.8 mm
11:04 AM 56.7°F13.7°C 54.3°F12.4°C 92% Calm Calm 3.1 mph5.0 kmh 30.19 in1022.4 mb 0.00 in0.0 mm 0.00 in0.0 mm 0.11 in2.8 mm
10:59 AM 56.1°F13.4°C 53.8°F12.1°C 92% 1.3 mph S2.1 kmh S 4.3 mph6.9 kmh 30.19 in1022.4 mb 0.00 in0.0 mm 0.00 in0.0 mm 0.11 in2.8 mm
10:54 AM 56.1°F13.4°C 54.1°F12.3°C 93% 0.4 mph SW0.6 kmh SW 4.3 mph6.9 kmh 30.19 in1022.4 mb 0.00 in0.0 mm 0.00 in0.0 mm 0.11 in2.8 mm
10:49 AM 55.8°F13.2°C 54.1°F12.3°C 94% Calm Calm 2.0 mph3.2 kmh 30.19 in1022.4 mb 0.00 in0.0 mm 0.00 in0.0 mm 0.11 in2.8 mm
10:44 AM 55.4°F13.0°C 53.4°F11.9°C 93% 0.2 mph SSW0.3 kmh SSW 3.1 mph5.0 kmh 30.19 in1022.4 mb 0.00 in0.0 mm 0.00 in0.0 mm 0.11 in2.8 mm
10:39 AM 55.2°F12.9°C 53.6°F12.0°C 94% Calm Calm -- 30.19 in1022.4 mb 0.00 in0.0 mm 0.00 in0.0 mm 0.11 in2.8 mm
10:34 AM 55.0°F12.8°C 53.1°F11.7°C 93% 0.4 mph SE0.6 kmh SE 4.3 mph6.9 kmh 30.19 in1022.4 mb 0.00 in0.0 mm 0.00 in0.0 mm 0.11 in2.8 mm
10:29 AM 55.4°F13.0°C 53.8°F12.1°C 94% 1.8 mph SW2.9 kmh SW 4.3 mph6.9 kmh 30.19 in1022.4 mb 0.00 in0.0 mm 0.00 in0.0 mm 0.11 in2.8 mm
10:24 AM 55.6°F13.1°C 54.0°F12.2°C 94% Calm Calm -- 30.19 in1022.4 mb 0.00 in0.0 mm 0.00 in0.0 mm 0.11 in2.8 mm
10:19 AM 55.6°F13.1°C 54.0°F12.2°C 94% Calm Calm 3.1 mph5.0 kmh 30.19 in1022.4 mb 0.00 in0.0 mm 0.00 in0.0 mm 0.11 in2.8 mm
10:14 AM 55.6°F13.1°C 54.1°F12.3°C 95% Calm Calm -- 30.19 in1022.4 mb 0.00 in0.0 mm 0.00 in0.0 mm 0.11 in2.8 mm
10:09 AM 55.2°F12.9°C 53.8°F12.1°C 95% Calm Calm -- 30.19 in1022.4 mb 0.00 in0.0 mm 0.00 in0.0 mm 0.11 in2.8 mm
10:04 AM 54.9°F12.7°C 53.2°F11.8°C 94% Calm Calm 2.0 mph3.2 kmh 30.19 in1022.4 mb 0.00 in0.0 mm 0.00 in0.0 mm 0.11 in2.8 mm
09:59 AM 54.9°F12.7°C 53.4°F11.9°C 95% 1.6 mph SSE2.6 kmh SSE 3.1 mph5.0 kmh 30.19 in1022.4 mb 0.00 in0.0 mm 0.00 in0.0 mm 0.11 in2.8 mm
09:54 AM 54.7°F12.6°C 53.6°F12.0°C 96% Calm Calm -- 30.19 in1022.4 mb 0.00 in0.0 mm 0.00 in0.0 mm 0.11 in2.8 mm
09:49 AM 54.3°F12.4°C 52.9°F11.6°C 95% Calm Calm -- 30.19 in1022.4 mb 0.00 in0.0 mm 0.00 in0.0 mm 0.11 in2.8 mm
09:44 AM 54.0°F12.2°C 52.9°F11.6°C 96% Calm Calm -- 30.19 in1022.4 mb 0.00 in0.0 mm 0.00 in0.0 mm 0.11 in2.8 mm
09:39 AM 53.6°F12.0°C 52.2°F11.2°C 95% Calm Calm 2.0 mph3.2 kmh 30.18 in1022.0 mb 0.00 in0.0 mm 0.00 in0.0 mm 0.11 in2.8 mm
09:34 AM 53.4°F11.9°C 52.0°F11.1°C 95% Calm Calm 4.3 mph6.9 kmh 30.18 in1022.0 mb 0.00 in0.0 mm 0.00 in0.0 mm 0.11 in2.8 mm
09:29 AM 53.4°F11.9°C 52.0°F11.1°C 95% 1.1 mph SE1.8 kmh SE 3.1 mph5.0 kmh 30.18 in1022.0 mb 0.00 in0.0 mm 0.00 in0.0 mm 0.11 in2.8 mm
09:24 AM 53.2°F11.8°C 51.8°F11.0°C 95% 0.2 mph SE0.3 kmh SE 2.0 mph3.2 kmh 30.18 in1022.0 mb 0.00 in0.0 mm 0.00 in0.0 mm 0.11 in2.8 mm
09:19 AM 53.1°F11.7°C 51.6°F10.9°C 95% 1.6 mph ESE2.6 kmh ESE 4.3 mph6.9 kmh 30.18 in1022.0 mb 0.00 in0.0 mm 0.00 in0.0 mm 0.11 in2.8 mm
09:14 AM 53.1°F11.7°C 51.6°F10.9°C 95% 1.8 mph SW2.9 kmh SW 4.3 mph6.9 kmh 30.18 in1022.0 mb 0.01 in0.3 mm 0.00 in0.0 mm 0.11 in2.8 mm
09:09 AM 52.9°F11.6°C 51.4°F10.8°C 95% Calm Calm 4.3 mph6.9 kmh 30.18 in1022.0 mb 0.01 in0.3 mm 0.00 in0.0 mm 0.11 in2.8 mm
09:04 AM 52.9°F11.6°C 51.4°F10.8°C 95% 2.2 mph SSE3.5 kmh SSE 4.3 mph6.9 kmh 30.17 in1021.7 mb 0.01 in0.3 mm 0.00 in0.0 mm 0.11 in2.8 mm
08:59 AM 52.7°F11.5°C 51.3°F10.7°C 95% 1.3 mph SW2.1 kmh SW 3.1 mph5.0 kmh 30.17 in1021.7 mb 0.02 in0.5 mm 0.00 in0.0 mm 0.11 in2.8 mm
08:54 AM 52.5°F11.4°C 51.4°F10.8°C 96% 0.2 mph SW0.3 kmh SW 2.0 mph3.2 kmh 30.17 in1021.7 mb 0.02 in0.5 mm 0.00 in0.0 mm 0.11 in2.8 mm
08:49 AM 52.3°F11.3°C 50.9°F10.5°C 95% 0.9 mph SE1.4 kmh SE 3.1 mph5.0 kmh 30.17 in1021.7 mb 0.03 in0.8 mm 0.00 in0.0 mm 0.11 in2.8 mm
08:44 AM 52.3°F11.3°C 51.3°F10.7°C 96% Calm Calm -- 30.16 in1021.3 mb 0.04 in1.0 mm 0.00 in0.0 mm 0.11 in2.8 mm
08:39 AM 52.2°F11.2°C 51.1°F10.6°C 96% Calm Calm 2.0 mph3.2 kmh 30.16 in1021.3 mb 0.04 in1.0 mm 0.00 in0.0 mm 0.11 in2.8 mm
08:34 AM 51.8°F11.0°C 50.4°F10.2°C 95% 0.4 mph SSE0.6 kmh SSE 3.1 mph5.0 kmh 30.16 in1021.3 mb 0.04 in1.0 mm 0.00 in0.0 mm 0.11 in2.8 mm
08:29 AM 51.6°F10.9°C 50.2°F10.1°C 95% Calm Calm -- 30.16 in1021.3 mb 0.04 in1.0 mm 0.00 in0.0 mm 0.11 in2.8 mm
08:24 AM 51.6°F10.9°C 50.2°F10.1°C 95% Calm Calm -- 30.16 in1021.3 mb 0.05 in1.3 mm 0.00 in0.0 mm 0.11 in2.8 mm
08:19 AM 51.4°F10.8°C 50.0°F10.0°C 95% Calm Calm -- 30.16 in1021.3 mb 0.05 in1.3 mm 0.12 in3.0 mm 0.11 in2.8 mm
08:14 AM 51.4°F10.8°C 50.0°F10.0°C 95% Calm Calm 2.0 mph3.2 kmh 30.16 in1021.3 mb 0.04 in1.0 mm 0.00 in0.0 mm 0.10 in2.5 mm
08:09 AM 51.3°F10.7°C 49.8°F9.9°C 95% Calm Calm -- 30.15 in1021.0 mb 0.04 in1.0 mm 0.00 in0.0 mm 0.10 in2.5 mm
08:04 AM 51.3°F10.7°C 49.8°F9.9°C 95% Calm Calm -- 30.15 in1021.0 mb 0.04 in1.0 mm 0.01 in0.3 mm 0.10 in2.5 mm
07:59 AM 51.1°F10.6°C 49.6°F9.8°C 95% Calm Calm -- 30.15 in1021.0 mb 0.03 in0.8 mm 0.00 in0.0 mm 0.09 in2.3 mm
07:54 AM 51.1°F10.6°C 49.6°F9.8°C 95% Calm Calm 3.1 mph5.0 kmh 30.14 in1020.7 mb 0.03 in0.8 mm 0.10 in2.5 mm 0.09 in2.3 mm
07:48 AM 51.1°F10.6°C 49.6°F9.8°C 95% Calm Calm -- 30.14 in1020.7 mb 0.02 in0.5 mm 0.12 in3.0 mm 0.08 in2.0 mm
07:43 AM 51.1°F10.6°C 49.6°F9.8°C 95% Calm Calm -- 30.14 in1020.7 mb 0.01 in0.3 mm 0.00 in0.0 mm 0.07 in1.8 mm
07:38 AM 50.9°F10.5°C 49.5°F9.7°C 95% Calm Calm 4.3 mph6.9 kmh 30.14 in1020.7 mb 0.01 in0.3 mm 0.00 in0.0 mm 0.07 in1.8 mm
07:33 AM 50.9°F10.5°C 49.5°F9.7°C 95% 0.2 mph NE0.3 kmh NE 2.0 mph3.2 kmh 30.14 in1020.7 mb 0.01 in0.3 mm 0.00 in0.0 mm 0.07 in1.8 mm
07:28 AM 50.7°F10.4°C 49.3°F9.6°C 95% Calm Calm -- 30.14 in1020.7 mb 0.01 in0.3 mm 0.00 in0.0 mm 0.07 in1.8 mm
07:23 AM 50.7°F10.4°C 49.3°F9.6°C 95% Calm Calm 2.0 mph3.2 kmh 30.14 in1020.7 mb 0.01 in0.3 mm 0.00 in0.0 mm 0.06 in1.5 mm
07:18 AM 50.7°F10.4°C 49.3°F9.6°C 95% 0.2 mph SE0.3 kmh SE 2.0 mph3.2 kmh 30.14 in1020.7 mb 0.01 in0.3 mm 0.00 in0.0 mm 0.06 in1.5 mm
07:13 AM 50.7°F10.4°C 49.3°F9.6°C 95% Calm Calm 1.1 mph1.8 kmh 30.13 in1020.3 mb 0.01 in0.3 mm 0.00 in0.0 mm 0.06 in1.5 mm
07:08 AM 50.5°F10.3°C 49.1°F9.5°C 95% 1.1 mph SE1.8 kmh SE 2.0 mph3.2 kmh 30.13 in1020.3 mb 0.01 in0.3 mm 0.00 in0.0 mm 0.06 in1.5 mm
07:03 AM 50.5°F10.3°C 49.1°F9.5°C 95% Calm Calm -- 30.13 in1020.3 mb 0.01 in0.3 mm 0.00 in0.0 mm 0.06 in1.5 mm
06:58 AM 50.5°F10.3°C 49.1°F9.5°C 95% Calm Calm -- 30.13 in1020.3 mb 0.01 in0.3 mm 0.00 in0.0 mm 0.06 in1.5 mm
06:53 AM 50.5°F10.3°C 49.1°F9.5°C 95% Calm Calm -- 30.13 in1020.3 mb 0.02 in0.5 mm 0.00 in0.0 mm 0.06 in1.5 mm
06:48 AM 50.5°F10.3°C 49.1°F9.5°C 95% Calm Calm 4.3 mph6.9 kmh 30.12 in1020.0 mb 0.02 in0.5 mm 0.00 in0.0 mm 0.06 in1.5 mm
06:43 AM 50.5°F10.3°C 49.1°F9.5°C 95% 1.3 mph SSE2.1 kmh SSE 4.3 mph6.9 kmh 30.12 in1020.0 mb 0.02 in0.5 mm 0.00 in0.0 mm 0.06 in1.5 mm
06:38 AM 50.5°F10.3°C 49.1°F9.5°C 95% Calm Calm 3.1 mph5.0 kmh 30.11 in1019.6 mb 0.02 in0.5 mm 0.00 in0.0 mm 0.06 in1.5 mm
06:33 AM 50.4°F10.2°C 48.9°F9.4°C 95% 0.7 mph SE1.1 kmh SE 4.3 mph6.9 kmh 30.11 in1019.6 mb 0.02 in0.5 mm 0.00 in0.0 mm 0.06 in1.5 mm
06:28 AM 50.4°F10.2°C 48.9°F9.4°C 95% 0.9 mph SSE1.4 kmh SSE 3.1 mph5.0 kmh 30.11 in1019.6 mb 0.02 in0.5 mm 0.12 in3.0 mm 0.06 in1.5 mm
06:23 AM 50.4°F10.2°C 48.9°F9.4°C 95% 0.2 mph SSE0.3 kmh SSE 2.0 mph3.2 kmh 30.11 in1019.6 mb 0.01 in0.3 mm 0.00 in0.0 mm 0.05 in1.3 mm
06:18 AM 50.4°F10.2°C 48.7°F9.3°C 94% 0.4 mph SE0.6 kmh SE 5.4 mph8.7 kmh 30.11 in1019.6 mb 0.01 in0.3 mm 0.00 in0.0 mm 0.05 in1.3 mm
06:13 AM 50.4°F10.2°C 48.7°F9.3°C 94% 1.6 mph SW2.6 kmh SW 5.4 mph8.7 kmh 30.11 in1019.6 mb 0.02 in0.5 mm 0.00 in0.0 mm 0.05 in1.3 mm
06:08 AM 50.4°F10.2°C 48.7°F9.3°C 94% 0.7 mph SE1.1 kmh SE 3.1 mph5.0 kmh 30.11 in1019.6 mb 0.02 in0.5 mm 0.00 in0.0 mm 0.05 in1.3 mm
06:03 AM 50.4°F10.2°C 48.7°F9.3°C 94% 1.6 mph SE2.6 kmh SE 3.1 mph5.0 kmh 30.10 in1019.3 mb 0.02 in0.5 mm 0.00 in0.0 mm 0.05 in1.3 mm
05:58 AM 50.2°F10.1°C 48.6°F9.2°C 94% 1.1 mph SSE1.8 kmh SSE 3.1 mph5.0 kmh 30.10 in1019.3 mb 0.02 in0.5 mm 0.00 in0.0 mm 0.05 in1.3 mm
05:53 AM 50.2°F10.1°C 48.6°F9.2°C 94% 1.1 mph SE1.8 kmh SE 2.0 mph3.2 kmh 30.11 in1019.6 mb 0.02 in0.5 mm 0.00 in0.0 mm 0.04 in1.0 mm
05:48 AM 50.0°F10.0°C 48.4°F9.1°C 94% Calm Calm 1.1 mph1.8 kmh 30.11 in1019.6 mb 0.02 in0.5 mm 0.00 in0.0 mm 0.04 in1.0 mm
05:43 AM 50.0°F10.0°C 48.4°F9.1°C 94% Calm Calm 1.1 mph1.8 kmh 30.10 in1019.3 mb 0.02 in0.5 mm 0.00 in0.0 mm 0.04 in1.0 mm
05:38 AM 50.0°F10.0°C 48.4°F9.1°C 94% 0.4 mph S0.6 kmh S 2.0 mph3.2 kmh 30.10 in1019.3 mb 0.03 in0.8 mm 0.00 in0.0 mm 0.04 in1.0 mm
05:33 AM 50.0°F10.0°C 48.4°F9.1°C 94% 0.4 mph E0.6 kmh E 2.0 mph3.2 kmh 30.10 in1019.3 mb 0.03 in0.8 mm 0.00 in0.0 mm 0.04 in1.0 mm
05:28 AM 49.8°F9.9°C 48.2°F9.0°C 94% Calm Calm -- 30.10 in1019.3 mb 0.03 in0.8 mm 0.00 in0.0 mm 0.04 in1.0 mm
05:23 AM 49.8°F9.9°C 48.2°F9.0°C 94% Calm Calm 1.1 mph1.8 kmh 30.10 in1019.3 mb 0.03 in0.8 mm 0.00 in0.0 mm 0.04 in1.0 mm
05:18 AM 49.8°F9.9°C 48.2°F9.0°C 94% Calm Calm -- 30.10 in1019.3 mb 0.03 in0.8 mm 0.12 in3.0 mm 0.04 in1.0 mm
05:13 AM 49.8°F9.9°C 48.2°F9.0°C 94% Calm Calm -- 30.10 in1019.3 mb 0.02 in0.5 mm 0.00 in0.0 mm 0.03 in0.8 mm
05:08 AM 49.6°F9.8°C 48.0°F8.9°C 94% Calm Calm -- 30.11 in1019.6 mb 0.02 in0.5 mm 0.00 in0.0 mm 0.03 in0.8 mm
05:03 AM 49.6°F9.8°C 47.7°F8.7°C 93% Calm Calm -- 30.10 in1019.3 mb 0.03 in0.8 mm 0.00 in0.0 mm 0.03 in0.8 mm
04:58 AM 49.6°F9.8°C 47.7°F8.7°C 93% Calm Calm -- 30.10 in1019.3 mb 0.03 in0.8 mm 0.12 in3.0 mm 0.03 in0.8 mm
04:53 AM 49.6°F9.8°C 47.7°F8.7°C 93% Calm Calm -- 30.10 in1019.3 mb 0.02 in0.5 mm 0.00 in0.0 mm 0.02 in0.5 mm
04:48 AM 49.6°F9.8°C 47.7°F8.7°C 93% Calm Calm -- 30.09 in1019.0 mb 0.02 in0.5 mm 0.00 in0.0 mm 0.02 in0.5 mm
04:43 AM 49.6°F9.8°C 47.7°F8.7°C 93% Calm Calm -- 30.09 in1019.0 mb 0.02 in0.5 mm 0.12 in3.0 mm 0.02 in0.5 mm
04:38 AM 49.6°F9.8°C 47.7°F8.7°C 93% Calm Calm -- 30.09 in1019.0 mb 0.01 in0.3 mm 0.00 in0.0 mm 0.01 in0.3 mm
04:33 AM 49.6°F9.8°C 47.7°F8.7°C 93% Calm Calm -- 30.09 in1019.0 mb 0.01 in0.3 mm 0.00 in0.0 mm 0.01 in0.3 mm
04:28 AM 49.6°F9.8°C 47.7°F8.7°C 93% 0.2 mph SW0.3 kmh SW 2.0 mph3.2 kmh 30.09 in1019.0 mb 0.01 in0.3 mm 0.00 in0.0 mm 0.01 in0.3 mm
04:23 AM 49.8°F9.9°C 47.8°F8.8°C 93% Calm Calm -- 30.09 in1019.0 mb 0.01 in0.3 mm 0.00 in0.0 mm 0.01 in0.3 mm
04:18 AM 49.8°F9.9°C 47.8°F8.8°C 93% Calm Calm -- 30.09 in1019.0 mb 0.01 in0.3 mm 0.00 in0.0 mm 0.01 in0.3 mm
04:13 AM 49.8°F9.9°C 47.8°F8.8°C 93% Calm Calm -- 30.09 in1019.0 mb 0.01 in0.3 mm 0.00 in0.0 mm 0.01 in0.3 mm
04:08 AM 49.8°F9.9°C 47.7°F8.7°C 92% 0.2 mph SE0.3 kmh SE 1.1 mph1.8 kmh 30.09 in1019.0 mb 0.01 in0.3 mm 0.12 in3.0 mm 0.01 in0.3 mm
04:03 AM 49.8°F9.9°C 47.7°F8.7°C 92% Calm Calm 1.1 mph1.8 kmh 30.09 in1019.0 mb 0.00 in0.0 mm 0.00 in0.0 mm 0.00 in0.0 mm
03:58 AM 49.8°F9.9°C 47.7°F8.7°C 92% Calm Calm -- 30.09 in1019.0 mb 0.00 in0.0 mm 0.00 in0.0 mm 0.00 in0.0 mm
03:53 AM 49.8°F9.9°C 47.7°F8.7°C 92% Calm Calm -- 30.09 in1019.0 mb 0.00 in0.0 mm 0.00 in0.0 mm 0.00 in0.0 mm
03:48 AM 49.8°F9.9°C 47.7°F8.7°C 92% Calm Calm -- 30.10 in1019.3 mb 0.00 in0.0 mm 0.00 in0.0 mm 0.00 in0.0 mm
03:43 AM 49.8°F9.9°C 47.7°F8.7°C 92% Calm Calm -- 30.10 in1019.3 mb 0.00 in0.0 mm 0.00 in0.0 mm 0.00 in0.0 mm
03:38 AM 49.8°F9.9°C 47.3°F8.5°C 91% Calm Calm -- 30.10 in1019.3 mb 0.00 in0.0 mm 0.00 in0.0 mm 0.00 in0.0 mm
03:33 AM 49.8°F9.9°C 47.3°F8.5°C 91% Calm Calm -- 30.10 in1019.3 mb 0.00 in0.0 mm 0.00 in0.0 mm 0.00 in0.0 mm
03:28 AM 49.8°F9.9°C 47.3°F8.5°C 91% Calm Calm -- 30.10 in1019.3 mb 0.00 in0.0 mm 0.00 in0.0 mm 0.00 in0.0 mm
03:23 AM 49.8°F9.9°C 47.3°F8.5°C 91% Calm Calm -- 30.10 in1019.3 mb 0.00 in0.0 mm 0.00 in0.0 mm 0.00 in0.0 mm
03:18 AM 49.8°F9.9°C 47.3°F8.5°C 91% Calm Calm -- 30.10 in1019.3 mb 0.00 in0.0 mm 0.00 in0.0 mm 0.00 in0.0 mm
03:13 AM 49.8°F9.9°C 46.9°F8.3°C 90% Calm Calm -- 30.10 in1019.3 mb 0.00 in0.0 mm 0.00 in0.0 mm 0.00 in0.0 mm
03:08 AM 49.8°F9.9°C 46.9°F8.3°C 90% Calm Calm -- 30.10 in1019.3 mb 0.00 in0.0 mm 0.00 in0.0 mm 0.00 in0.0 mm
03:03 AM 49.8°F9.9°C 46.8°F8.2°C 89% Calm Calm -- 30.10 in1019.3 mb 0.00 in0.0 mm 0.00 in0.0 mm 0.00 in0.0 mm
02:58 AM 49.8°F9.9°C 46.8°F8.2°C 89% Calm Calm -- 30.10 in1019.3 mb 0.00 in0.0 mm 0.00 in0.0 mm 0.00 in0.0 mm
02:53 AM 50.0°F10.0°C 46.9°F8.3°C 89% Calm Calm -- 30.10 in1019.3 mb 0.00 in0.0 mm 0.00 in0.0 mm 0.00 in0.0 mm
02:48 AM 50.2°F10.1°C 46.8°F8.2°C 88% Calm Calm -- 30.11 in1019.6 mb 0.00 in0.0 mm 0.00 in0.0 mm 0.00 in0.0 mm
02:43 AM 50.2°F10.1°C 46.8°F8.2°C 88% Calm Calm -- 30.10 in1019.3 mb 0.00 in0.0 mm 0.00 in0.0 mm 0.00 in0.0 mm
02:38 AM 50.4°F10.2°C 46.6°F8.1°C 87% Calm Calm -- 30.10 in1019.3 mb 0.00 in0.0 mm 0.00 in0.0 mm 0.00 in0.0 mm
02:33 AM 50.5°F10.3°C 46.8°F8.2°C 87% Calm Calm 2.0 mph3.2 kmh 30.10 in1019.3 mb 0.00 in0.0 mm 0.00 in0.0 mm 0.00 in0.0 mm
02:28 AM 50.5°F10.3°C 46.6°F8.1°C 86% 0.2 mph SE0.3 kmh SE 1.1 mph1.8 kmh 30.10 in1019.3 mb 0.00 in0.0 mm 0.00 in0.0 mm 0.00 in0.0 mm
02:23 AM 50.7°F10.4°C 46.4°F8.0°C 85% Calm Calm -- 30.10 in1019.3 mb 0.00 in0.0 mm 0.00 in0.0 mm 0.00 in0.0 mm
02:18 AM 50.9°F10.5°C 46.2°F7.9°C 84% Calm Calm -- 30.11 in1019.6 mb 0.00 in0.0 mm 0.00 in0.0 mm 0.00 in0.0 mm
02:13 AM 51.1°F10.6°C 46.4°F8.0°C 84% Calm Calm -- 30.11 in1019.6 mb 0.00 in0.0 mm 0.00 in0.0 mm 0.00 in0.0 mm
02:08 AM 51.1°F10.6°C 46.0°F7.8°C 83% Calm Calm -- 30.11 in1019.6 mb 0.00 in0.0 mm 0.00 in0.0 mm 0.00 in0.0 mm
02:03 AM 51.1°F10.6°C 46.0°F7.8°C 83% 0.2 mph W0.3 kmh W 1.1 mph1.8 kmh 30.11 in1019.6 mb 0.00 in0.0 mm 0.00 in0.0 mm 0.00 in0.0 mm
01:58 AM 50.9°F10.5°C 45.9°F7.7°C 83% Calm Calm -- 30.10 in1019.3 mb 0.00 in0.0 mm 0.00 in0.0 mm 0.00 in0.0 mm
01:53 AM 50.9°F10.5°C 45.9°F7.7°C 83% Calm Calm 1.1 mph1.8 kmh 30.10 in1019.3 mb 0.00 in0.0 mm 0.00 in0.0 mm 0.00 in0.0 mm
01:48 AM 50.9°F10.5°C 45.9°F7.7°C 83% 0.2 mph WSW0.3 kmh WSW 3.1 mph5.0 kmh 30.10 in1019.3 mb 0.00 in0.0 mm 0.00 in0.0 mm 0.00 in0.0 mm
01:43 AM 50.7°F10.4°C 45.7°F7.6°C 83% Calm Calm -- 30.10 in1019.3 mb 0.00 in0.0 mm 0.00 in0.0 mm 0.00 in0.0 mm
01:38 AM 50.5°F10.3°C 45.5°F7.5°C 83% Calm Calm -- 30.10 in1019.3 mb 0.00 in0.0 mm 0.00 in0.0 mm 0.00 in0.0 mm
01:33 AM 50.4°F10.2°C 45.3°F7.4°C 83% Calm Calm -- 30.10 in1019.3 mb 0.00 in0.0 mm 0.00 in0.0 mm 0.00 in0.0 mm
01:28 AM 50.4°F10.2°C 45.3°F7.4°C 83% Calm Calm -- 30.10 in1019.3 mb 0.00 in0.0 mm 0.00 in0.0 mm 0.00 in0.0 mm
01:23 AM 50.4°F10.2°C 45.3°F7.4°C 83% Calm Calm -- 30.10 in1019.3 mb 0.00 in0.0 mm 0.00 in0.0 mm 0.00 in0.0 mm
01:18 AM 50.4°F10.2°C 45.3°F7.4°C 83% Calm Calm -- 30.10 in1019.3 mb 0.00 in0.0 mm 0.00 in0.0 mm 0.00 in0.0 mm
01:13 AM 50.2°F10.1°C 45.5°F7.5°C 84% Calm Calm -- 30.09 in1019.0 mb 0.00 in0.0 mm 0.00 in0.0 mm 0.00 in0.0 mm
01:08 AM 50.2°F10.1°C 45.5°F7.5°C 84% Calm Calm -- 30.10 in1019.3 mb 0.00 in0.0 mm 0.00 in0.0 mm 0.00 in0.0 mm
01:03 AM 49.8°F9.9°C 45.1°F7.3°C 84% Calm Calm -- 30.09 in1019.0 mb 0.00 in0.0 mm 0.00 in0.0 mm 0.00 in0.0 mm
12:58 AM 49.8°F9.9°C 45.1°F7.3°C 84% Calm Calm -- 30.09 in1019.0 mb 0.00 in0.0 mm 0.00 in0.0 mm 0.00 in0.0 mm
12:53 AM 49.6°F9.8°C 45.3°F7.4°C 85% Calm Calm -- 30.09 in1019.0 mb 0.00 in0.0 mm 0.00 in0.0 mm 0.00 in0.0 mm
12:48 AM 49.6°F9.8°C 45.3°F7.4°C 85% 0.4 mph SE0.6 kmh SE 2.0 mph3.2 kmh 30.09 in1019.0 mb 0.00 in0.0 mm 0.00 in0.0 mm 0.00 in0.0 mm
12:43 AM 49.5°F9.7°C 45.5°F7.5°C 86% Calm Calm -- 30.08 in1018.6 mb 0.00 in0.0 mm 0.00 in0.0 mm 0.00 in0.0 mm
12:38 AM 49.3°F9.6°C 45.3°F7.4°C 86% Calm Calm -- 30.08 in1018.6 mb 0.00 in0.0 mm 0.00 in0.0 mm 0.00 in0.0 mm
12:33 AM 49.3°F9.6°C 45.3°F7.4°C 86% Calm Calm -- 30.08 in1018.6 mb 0.00 in0.0 mm 0.00 in0.0 mm 0.00 in0.0 mm
12:28 AM 49.3°F9.6°C 45.3°F7.4°C 86% Calm Calm -- 30.08 in1018.6 mb 0.00 in0.0 mm 0.00 in0.0 mm 0.00 in0.0 mm
12:23 AM 49.1°F9.5°C 45.3°F7.4°C 87% Calm Calm -- 30.09 in1019.0 mb 0.00 in0.0 mm 0.00 in0.0 mm 0.00 in0.0 mm
12:18 AM 48.9°F9.4°C 45.1°F7.3°C 87% Calm Calm -- 30.09 in1019.0 mb 0.00 in0.0 mm 0.00 in0.0 mm 0.00 in0.0 mm
12:13 AM 48.6°F9.2°C 44.8°F7.1°C 87% Calm Calm -- 30.09 in1019.0 mb 0.00 in0.0 mm 0.00 in0.0 mm 0.00 in0.0 mm
12:08 AM 48.4°F9.1°C 45.0°F7.2°C 88% Calm Calm -- 30.09 in1019.0 mb 0.00 in0.0 mm 0.00 in0.0 mm 0.00 in0.0 mm
12:03 AM 48.4°F9.1°C 44.8°F7.1°C 87% Calm Calm -- 30.09 in1019.0 mb 0.00 in0.0 mm 0.00 in0.0 mm 0.00 in0.0 mm